Time;durP1;ratioP1;P1;durP2;ratioP2;P2;SDS_P1;SDS_P2;PMS_P1;PMS_P2;Temp;Humidity;BMP_temperature;BMP_pressure;BME280_temperature;BME280_humidity;BME280_pressure;Samples;Min_cycle;Max_cycle;Signal;HPM_P1;HPM_P2
2023/02/02 11:28:33;;;;;;;2.87;0.63;;;;;;;;;;7402568;19;20136;-92
2023/02/02 11:31:00;;;;;;;0.30;0.30;;;;;;;;;;7396190;19;20133;-92
2023/02/02 11:33:28;;;;;;;0.30;0.30;;;;;;;;;;7395880;19;20177;-93
2023/02/02 11:35:58;;;;;;;0.30;0.30;;;;;;;;;;7394872;19;20144;-91
2023/02/02 11:38:26;;;;;;;0.23;0.23;;;;;;;;;;7393284;19;20140;-92
2023/02/02 11:41:01;;;;;;;0.23;0.23;;;;;;;;;;7398909;19;20151;-94
2023/02/02 11:43:30;;;;;;;0.30;0.30;;;;;;;;;;7397793;19;20180;-93
2023/02/02 11:46:20;;;;;;;0.50;0.50;;;;;;;;;;7395064;19;20164;-91
2023/02/02 11:49:13;;;;;;;0.30;0.30;;;;;;;;;;7397880;19;20526;-92
2023/02/02 11:51:41;;;;;;;0.30;0.30;;;;;;;;;;7398462;19;20152;-92
2023/02/02 11:54:31;;;;;;;0.43;0.43;;;;;;;;;;7396826;19;20149;-92
2023/02/02 11:57:00;;;;;;;0.20;0.20;;;;;;;;;;7392870;19;20196;-93
2023/02/02 11:59:47;;;;;;;0.20;0.20;;;;;;;;;;7396879;19;20453;-93
2023/02/02 12:02:22;;;;;;;0.30;0.30;;;;;;;;;;7395019;19;20167;-93
2023/02/02 12:04:55;;;;;;;0.30;0.30;;;;;;;;;;7397403;19;20164;-92
2023/02/02 12:07:26;;;;;;;0.37;0.37;;;;;;;;;;7394099;19;20503;-93
2023/02/02 12:09:56;;;;;;;0.30;0.30;;;;;;;;;;7397386;19;20140;-93
2023/02/02 12:12:29;;;;;;;0.30;0.30;;;;;;;;;;7395888;19;20370;-93
2023/02/02 12:15:22;;;;;;;0.30;0.30;;;;;;;;;;7393539;19;20187;-93
2023/02/02 12:17:51;;;;;;;0.37;0.37;;;;;;;;;;7395414;19;20141;-92
2023/02/02 12:20:32;;;;;;;0.30;0.30;;;;;;;;;;7397014;19;20137;-92
2023/02/02 12:23:18;;;;;;;0.20;0.20;;;;;;;;;;7396594;19;20188;-92
2023/02/02 12:26:03;;;;;;;0.30;0.30;;;;;;;;;;7396575;19;20125;-92
2023/02/02 12:28:57;;;;;;;0.27;0.27;;;;;;;;;;7397725;19;20133;-93
2023/02/02 12:31:54;;;;;;;0.30;0.30;;;;;;;;;;7397622;19;20160;-93
2023/02/02 12:34:43;;;;;;;0.30;0.30;;;;;;;;;;7398613;19;20200;-92
2023/02/02 12:37:19;;;;;;;0.30;0.30;;;;;;;;;;7395195;19;20148;-93
2023/02/02 12:40:13;;;;;;;0.30;0.30;;;;;;;;;;7399597;19;20167;-93
2023/02/02 12:42:40;;;;;;;0.30;0.30;;;;;;;;;;7392832;19;20168;-91
2023/02/02 12:45:18;;;;;;;0.27;0.27;;;;;;;;;;7394507;19;20168;-93
2023/02/02 12:48:03;;;;;;;0.30;0.30;;;;;;;;;;7389915;19;20592;-93
2023/02/02 12:51:15;;;;;;;0.30;0.30;;;;;;;;;;7406056;19;20117;-94
2023/02/02 12:54:16;;;;;;;0.20;0.20;;;;;;;;;;7405827;19;20156;-93
2023/02/02 12:57:32;;;;;;;0.20;0.20;;;;;;;;;;7426421;19;20147;-94
2023/02/02 13:00:18;;;;;;;0.30;0.30;;;;;;;;;;7424378;19;20159;-95
2023/02/02 13:03:04;;;;;;;0.20;0.20;;;;;;;;;;7401834;19;20140;-93
2023/02/02 13:05:57;;;;;;;0.30;0.30;;;;;;;;;;7396206;19;20132;-92
2023/02/02 13:08:28;;;;;;;0.30;0.30;;;;;;;;;;7397336;19;20137;-93
2023/02/02 13:11:01;;;;;;;0.30;0.30;;;;;;;;;;7394449;19;20125;-92
2023/02/02 13:13:31;;;;;;;0.20;0.20;;;;;;;;;;7395522;19;20189;-94
2023/02/02 13:16:04;;;;;;;0.30;0.30;;;;;;;;;;7395842;19;20168;-92
2023/02/02 13:18:41;;;;;;;0.30;0.30;;;;;;;;;;7392149;19;20145;-92
2023/02/02 13:21:14;;;;;;;0.30;0.30;;;;;;;;;;7397453;19;20167;-94
2023/02/02 13:23:44;;;;;;;0.20;0.20;;;;;;;;;;7390891;19;20164;-93
2023/02/02 13:26:16;;;;;;;0.30;0.30;;;;;;;;;;7396132;19;20612;-92
2023/02/02 13:29:04;;;;;;;0.30;0.30;;;;;;;;;;7394189;19;20529;-91
2023/02/02 13:31:40;;;;;;;1.60;0.43;;;;;;;;;;7396529;19;20152;-92
2023/02/02 13:34:19;;;;;;;0.30;0.30;;;;;;;;;;7390855;19;20543;-92
2023/02/02 13:36:50;;;;;;;0.20;0.20;;;;;;;;;;7390982;19;20491;-93
2023/02/02 13:39:26;;;;;;;0.20;0.20;;;;;;;;;;7390805;19;20156;-91
2023/02/02 13:41:53;;;;;;;0.30;0.30;;;;;;;;;;7394749;19;20569;-92
2023/02/02 13:44:24;;;;;;;0.27;0.27;;;;;;;;;;7394168;19;20191;-93
2023/02/02 13:47:10;;;;;;;0.20;0.20;;;;;;;;;;7396437;19;20133;-93
2023/02/02 13:49:41;;;;;;;0.30;0.30;;;;;;;;;;7391851;19;20141;-91
2023/02/02 13:52:42;;;;;;;0.20;0.20;;;;;;;;;;7394802;19;20157;-92
2023/02/02 13:55:22;;;;;;;0.30;0.30;;;;;;;;;;7398152;19;20173;-93
2023/02/02 13:57:58;;;;;;;0.20;0.20;;;;;;;;;;7394571;19;20580;-94
2023/02/02 14:00:32;;;;;;;0.30;0.30;;;;;;;;;;7396399;19;20142;-92
2023/02/02 14:03:22;;;;;;;0.30;0.30;;;;;;;;;;7396765;19;20140;-93
2023/02/02 14:06:02;;;;;;;0.30;0.30;;;;;;;;;;7407016;19;20164;-93
2023/02/02 14:08:29;;;;;;;0.20;0.20;;;;;;;;;;7400374;19;20478;-94
2023/02/02 14:10:58;;;;;;;0.50;0.50;;;;;;;;;;7399753;19;20129;-93
2023/02/02 14:16:43;;;;;;;0.73;0.73;;;;;;;;;;7407778;19;20136;-93
2023/02/02 14:19:16;;;;;;;0.30;0.30;;;;;;;;;;7400487;19;20167;-92
2023/02/02 14:21:42;;;;;;;0.30;0.30;;;;;;;;;;7406003;19;20129;-91
2023/02/02 14:24:27;;;;;;;0.20;0.20;;;;;;;;;;7399655;19;20179;-92
2023/02/02 14:26:55;;;;;;;0.30;0.30;;;;;;;;;;7404418;19;20172;-91
2023/02/02 14:29:31;;;;;;;0.30;0.30;;;;;;;;;;7410820;19;20144;-91
2023/02/02 14:31:59;;;;;;;0.30;0.30;;;;;;;;;;7411061;19;20141;-92
2023/02/02 14:34:33;;;;;;;0.30;0.30;;;;;;;;;;7404715;19;20639;-92
2023/02/02 14:37:05;;;;;;;0.30;0.30;;;;;;;;;;7407101;19;21026;-92
2023/02/02 14:39:36;;;;;;;0.20;0.20;;;;;;;;;;7405120;19;20129;-92
2023/02/02 14:45:34;;;;;;;0.20;0.20;;;;;;;;;;7402307;19;20144;-91
2023/02/02 14:48:19;;;;;;;0.30;0.30;;;;;;;;;;7401812;19;20125;-92
2023/02/02 14:50:50;;;;;;;0.30;0.30;;;;;;;;;;7402502;19;20129;-93
2023/02/02 14:53:29;;;;;;;0.20;0.20;;;;;;;;;;7400753;19;21410;-92
2023/02/02 14:56:13;;;;;;;0.30;0.30;;;;;;;;;;7400947;19;20159;-92
2023/02/02 14:58:46;;;;;;;0.30;0.30;;;;;;;;;;7398237;19;20133;-91
2023/02/02 15:01:16;;;;;;;0.30;0.30;;;;;;;;;;7394690;19;20121;-92
2023/02/02 15:03:43;;;;;;;0.30;0.30;;;;;;;;;;7398673;19;20164;-93
2023/02/02 15:06:28;;;;;;;0.30;0.30;;;;;;;;;;7396848;19;20508;-91
2023/02/02 15:09:22;;;;;;;0.30;0.30;;;;;;;;;;7397507;19;20628;-91
2023/02/02 15:11:58;;;;;;;0.30;0.30;;;;;;;;;;7408903;19;20132;-90
2023/02/02 15:14:32;;;;;;;0.30;0.30;;;;;;;;;;7399607;19;20219;-91
2023/02/02 15:17:15;;;;;;;0.30;0.30;;;;;;;;;;7399580;19;20135;-89
2023/02/02 15:19:44;;;;;;;0.27;0.27;;;;;;;;;;7399353;19;20144;-92
2023/02/02 15:22:29;;;;;;;0.33;0.33;;;;;;;;;;7400886;19;20160;-92
2023/02/02 15:24:58;;;;;;;0.20;0.20;;;;;;;;;;7397978;19;20633;-90
2023/02/02 15:27:25;;;;;;;0.30;0.30;;;;;;;;;;7399592;19;20147;-91
2023/02/02 15:29:58;;;;;;;0.20;0.20;;;;;;;;;;7399769;19;20148;-89
2023/02/02 15:32:27;;;;;;;6.87;1.23;;;;;;;;;;7399235;19;20128;-92
2023/02/02 15:34:57;;;;;;;0.30;0.30;;;;;;;;;;7397808;19;20647;-90
2023/02/02 15:37:29;;;;;;;0.43;0.43;;;;;;;;;;7399783;19;20152;-93
2023/02/02 15:39:58;;;;;;;0.30;0.30;;;;;;;;;;7394423;19;20500;-91
2023/02/02 15:43:01;;;;;;;1.33;1.23;;;;;;;;;;7398549;19;20163;-93
2023/02/02 15:45:38;;;;;;;0.20;0.20;;;;;;;;;;7395890;19;20543;-90
2023/02/02 15:48:25;;;;;;;0.27;0.27;;;;;;;;;;7398945;19;20609;-92
2023/02/02 15:50:56;;;;;;;0.30;0.30;;;;;;;;;;7399605;19;20141;-92
2023/02/02 15:53:28;;;;;;;0.20;0.20;;;;;;;;;;7399406;19;20528;-92
2023/02/02 15:55:55;;;;;;;0.30;0.30;;;;;;;;;;7395798;19;20132;-90
2023/02/02 15:58:28;;;;;;;0.20;0.20;;;;;;;;;;7400907;19;20606;-90
2023/02/02 16:00:57;;;;;;;0.20;0.20;;;;;;;;;;7398095;19;20144;-91
2023/02/02 16:03:31;;;;;;;0.20;0.20;;;;;;;;;;7396900;19;20152;-91
2023/02/02 16:05:57;;;;;;;0.40;0.40;;;;;;;;;;7398542;19;20159;-90
2023/02/02 16:08:34;;;;;;;0.23;0.23;;;;;;;;;;7397346;19;20133;-92
2023/02/02 16:11:13;;;;;;;0.30;0.30;;;;;;;;;;7397645;19;20140;-89
2023/02/02 16:13:43;;;;;;;0.30;0.30;;;;;;;;;;7397943;19;20188;-93
2023/02/02 16:16:34;;;;;;;0.30;0.30;;;;;;;;;;7399716;19;20640;-91
2023/02/02 16:19:07;;;;;;;0.97;0.57;;;;;;;;;;7394944;19;20152;-91
2023/02/02 16:21:42;;;;;;;0.30;0.30;;;;;;;;;;7395781;19;20133;-90
2023/02/02 16:24:16;;;;;;;0.23;0.23;;;;;;;;;;7397372;19;20160;-93
2023/02/02 16:26:42;;;;;;;0.30;0.30;;;;;;;;;;7397927;19;20648;-92
2023/02/02 16:29:16;;;;;;;0.20;0.20;;;;;;;;;;7398698;19;20148;-90
2023/02/02 16:31:45;;;;;;;0.30;0.30;;;;;;;;;;7396052;19;20137;-90
2023/02/02 16:34:38;;;;;;;0.30;0.30;;;;;;;;;;7396536;19;20232;-91
2023/02/02 16:37:10;;;;;;;3.50;0.83;;;;;;;;;;7396111;19;20129;-92
2023/02/02 16:39:37;;;;;;;0.30;0.30;;;;;;;;;;7394821;19;20596;-88
2023/02/02 16:42:21;;;;;;;0.20;0.20;;;;;;;;;;7394798;19;20172;-92
2023/02/02 16:44:48;;;;;;;0.20;0.20;;;;;;;;;;7394355;19;20160;-91
2023/02/02 16:47:24;;;;;;;0.30;0.30;;;;;;;;;;7394239;19;20141;-91
2023/02/02 16:50:32;;;;;;;0.30;0.30;;;;;;;;;;7397124;19;20124;-92
2023/02/02 16:53:03;;;;;;;0.30;0.30;;;;;;;;;;7396327;19;20132;-93
2023/02/02 16:55:32;;;;;;;0.30;0.30;;;;;;;;;;7390950;19;20160;-89
2023/02/02 16:58:18;;;;;;;0.30;0.30;;;;;;;;;;7393035;19;20165;-92
2023/02/02 17:01:02;;;;;;;0.30;0.30;;;;;;;;;;7392658;19;20212;-92
2023/02/02 17:03:48;;;;;;;0.20;0.20;;;;;;;;;;7389880;19;20185;-91
2023/02/02 17:06:15;;;;;;;0.30;0.30;;;;;;;;;;7396522;19;20144;-92
2023/02/02 17:08:42;;;;;;;0.30;0.30;;;;;;;;;;7395552;19;20505;-93
2023/02/02 17:11:25;;;;;;;0.30;0.30;;;;;;;;;;7395995;19;20609;-91
2023/02/02 17:13:53;;;;;;;0.30;0.30;;;;;;;;;;7394250;19;20633;-93
2023/02/02 17:16:21;;;;;;;0.30;0.30;;;;;;;;;;7395367;19;20627;-92
2023/02/02 17:18:49;;;;;;;0.30;0.30;;;;;;;;;;7394018;19;20562;-92
2023/02/02 17:21:19;;;;;;;0.30;0.30;;;;;;;;;;7395594;19;20562;-92
2023/02/02 17:23:46;;;;;;;0.20;0.20;;;;;;;;;;7396625;19;20159;-91
2023/02/02 17:26:12;;;;;;;0.30;0.30;;;;;;;;;;7395265;19;20156;-91
2023/02/02 17:28:39;;;;;;;0.20;0.20;;;;;;;;;;7394937;19;20179;-92
2023/02/02 17:31:12;;;;;;;0.30;0.30;;;;;;;;;;7394952;19;20172;-91
2023/02/02 17:33:39;;;;;;;0.20;0.20;;;;;;;;;;7386754;19;20998;-90
2023/02/02 17:36:06;;;;;;;1.07;1.07;;;;;;;;;;7392096;19;20171;-92
2023/02/02 17:38:32;;;;;;;0.30;0.30;;;;;;;;;;7415556;19;20148;-93
2023/02/02 17:41:03;;;;;;;0.20;0.20;;;;;;;;;;7429415;19;20129;-93
2023/02/02 17:43:31;;;;;;;0.30;0.30;;;;;;;;;;7426851;19;20168;-93
2023/02/02 17:45:57;;;;;;;0.20;0.20;;;;;;;;;;7430415;19;20159;-94
2023/02/02 17:48:26;;;;;;;0.70;0.70;;;;;;;;;;7410097;19;20172;-92
2023/02/02 17:50:53;;;;;;;1.33;1.33;;;;;;;;;;7403372;19;20137;-92
2023/02/02 17:53:20;;;;;;;0.20;0.20;;;;;;;;;;7393800;19;20197;-92
2023/02/02 17:55:50;;;;;;;0.20;0.20;;;;;;;;;;7393216;19;20604;-90
2023/02/02 17:58:17;;;;;;;0.30;0.30;;;;;;;;;;7391769;19;20504;-90
2023/02/02 18:00:48;;;;;;;0.30;0.30;;;;;;;;;;7401143;19;20137;-91
2023/02/02 18:03:20;;;;;;;0.20;0.20;;;;;;;;;;7393574;19;20160;-92
2023/02/02 18:05:47;;;;;;;0.43;0.43;;;;;;;;;;7393422;19;20154;-90
2023/02/02 18:08:14;;;;;;;0.20;0.20;;;;;;;;;;7390375;19;20508;-91
2023/02/02 18:10:41;;;;;;;0.30;0.30;;;;;;;;;;7392670;19;20148;-92
2023/02/02 18:13:37;;;;;;;0.30;0.30;;;;;;;;;;7388151;19;20256;-92
2023/02/02 18:16:07;;;;;;;0.30;0.30;;;;;;;;;;7390776;19;20160;-91
2023/02/02 18:18:37;;;;;;;0.30;0.30;;;;;;;;;;7393120;19;20489;-92
2023/02/02 18:21:08;;;;;;;0.20;0.20;;;;;;;;;;7398267;19;20156;-91
2023/02/02 18:23:36;;;;;;;0.30;0.30;;;;;;;;;;7384267;19;20172;-92
2023/02/02 18:26:10;;;;;;;0.30;0.30;;;;;;;;;;7395462;19;20505;-94
2023/02/02 18:28:37;;;;;;;0.30;0.30;;;;;;;;;;7391040;19;20640;-89
2023/02/02 18:31:09;;;;;;;0.30;0.30;;;;;;;;;;7394590;19;20141;-90
2023/02/02 18:33:40;;;;;;;0.30;0.30;;;;;;;;;;7390267;19;20230;-92
2023/02/02 18:36:14;;;;;;;0.30;0.30;;;;;;;;;;7390713;19;20153;-90
2023/02/02 18:38:44;;;;;;;0.30;0.30;;;;;;;;;;7391952;19;20155;-90
2023/02/02 18:41:14;;;;;;;0.30;0.30;;;;;;;;;;7389352;19;20145;-91
2023/02/02 18:43:41;;;;;;;0.30;0.30;;;;;;;;;;7390205;19;20628;-91
2023/02/02 18:46:12;;;;;;;0.30;0.30;;;;;;;;;;7397865;19;20248;-90
2023/02/02 18:48:39;;;;;;;0.30;0.30;;;;;;;;;;7396224;19;20153;-92
2023/02/02 18:51:07;;;;;;;0.30;0.30;;;;;;;;;;7397486;19;20147;-92
2023/02/02 18:53:34;;;;;;;0.30;0.30;;;;;;;;;;7395956;19;20155;-90
2023/02/02 18:56:07;;;;;;;0.30;0.30;;;;;;;;;;7395407;19;20148;-91
2023/02/02 18:58:35;;;;;;;0.30;0.30;;;;;;;;;;7393211;19;20548;-92
2023/02/02 19:01:14;;;;;;;0.30;0.30;;;;;;;;;;7395067;19;20514;-90
2023/02/02 19:03:52;;;;;;;0.30;0.30;;;;;;;;;;7396709;19;20216;-92
2023/02/02 19:09:08;;;;;;;0.30;0.30;;;;;;;;;;7392207;19;20811;-92
2023/02/02 19:11:42;;;;;;;0.20;0.20;;;;;;;;;;7395891;19;20141;-89
2023/02/02 19:14:50;;;;;;;;;;;;;;;;;;;;;
2023/02/02 19:20:27;;;;;;;0.30;0.30;;;;;;;;;;7393392;19;20148;-91
2023/02/02 19:23:20;;;;;;;0.20;0.20;;;;;;;;;;7394876;19;20171;-91
2023/02/02 19:25:49;;;;;;;0.20;0.20;;;;;;;;;;7392643;19;20155;-94
2023/02/02 19:28:47;;;;;;;0.30;0.30;;;;;;;;;;7386593;19;20147;-91
2023/02/02 19:31:20;;;;;;;0.30;0.30;;;;;;;;;;7394672;19;20509;-90
2023/02/02 19:33:49;;;;;;;0.30;0.30;;;;;;;;;;7392497;19;20161;-90
2023/02/02 19:36:18;;;;;;;0.30;0.30;;;;;;;;;;7390321;19;20164;-90
2023/02/02 19:38:46;;;;;;;0.30;0.30;;;;;;;;;;7388003;19;20141;-91
2023/02/02 19:41:18;;;;;;;0.30;0.30;;;;;;;;;;7391186;19;20133;-89
2023/02/02 19:43:51;;;;;;;0.30;0.30;;;;;;;;;;7390352;19;20148;-92
2023/02/02 19:46:20;;;;;;;0.23;0.23;;;;;;;;;;7383671;19;20137;-90
2023/02/02 19:48:50;;;;;;;1.27;1.27;;;;;;;;;;7390189;19;20186;-89
2023/02/02 19:51:36;;;;;;;0.20;0.20;;;;;;;;;;7393997;19;20140;-89
2023/02/02 19:54:04;;;;;;;0.20;0.20;;;;;;;;;;7391709;19;20655;-90
2023/02/02 19:56:36;;;;;;;0.20;0.20;;;;;;;;;;7389816;19;20169;-92
2023/02/02 19:59:03;;;;;;;0.20;0.20;;;;;;;;;;7391241;19;20146;-90
2023/02/02 20:01:33;;;;;;;0.30;0.30;;;;;;;;;;7393040;19;20184;-91
2023/02/02 20:04:02;;;;;;;1.87;0.40;;;;;;;;;;7390995;19;20159;-90
2023/02/02 20:06:30;;;;;;;0.30;0.30;;;;;;;;;;7391744;19;20133;-90
2023/02/02 20:08:59;;;;;;;0.20;0.20;;;;;;;;;;7392286;19;20143;-91
2023/02/02 20:11:36;;;;;;;0.30;0.30;;;;;;;;;;7391883;19;20152;-89
2023/02/02 20:14:24;;;;;;;0.20;0.20;;;;;;;;;;7391493;19;20144;-91
2023/02/02 20:16:59;;;;;;;0.30;0.30;;;;;;;;;;7387536;19;20164;-89
2023/02/02 20:19:28;;;;;;;0.20;0.20;;;;;;;;;;7390852;19;20160;-90
2023/02/02 20:21:58;;;;;;;0.40;0.40;;;;;;;;;;7393136;19;20179;-90
2023/02/02 20:24:30;;;;;;;0.30;0.30;;;;;;;;;;7391095;19;20216;-91
2023/02/02 20:27:00;;;;;;;0.30;0.30;;;;;;;;;;7387241;19;20162;-89
2023/02/02 20:29:36;;;;;;;0.30;0.30;;;;;;;;;;7394305;19;20148;-91
2023/02/02 20:32:04;;;;;;;0.30;0.30;;;;;;;;;;7395462;19;20648;-90
2023/02/02 20:34:35;;;;;;;0.20;0.20;;;;;;;;;;7393841;19;20157;-92
2023/02/02 20:37:15;;;;;;;0.30;0.30;;;;;;;;;;7390741;19;20502;-89
2023/02/02 20:39:52;;;;;;;0.20;0.20;;;;;;;;;;7391469;19;20706;-92
2023/02/02 20:42:25;;;;;;;0.27;0.27;;;;;;;;;;7393899;19;20149;-92
2023/02/02 20:44:52;;;;;;;0.20;0.20;;;;;;;;;;7394378;19;20156;-88
2023/02/02 20:47:18;;;;;;;0.30;0.30;;;;;;;;;;7394237;19;20605;-89
2023/02/02 20:49:45;;;;;;;0.30;0.30;;;;;;;;;;7395043;19;20171;-90
2023/02/02 20:52:20;;;;;;;0.77;0.77;;;;;;;;;;7394635;19;20144;-92
2023/02/02 20:54:47;;;;;;;0.30;0.30;;;;;;;;;;7393206;19;20152;-91
2023/02/02 20:57:14;;;;;;;0.30;0.30;;;;;;;;;;7393847;19;20148;-91
2023/02/02 20:59:41;;;;;;;0.30;0.30;;;;;;;;;;7394715;19;20647;-89
2023/02/02 21:02:17;;;;;;;0.30;0.30;;;;;;;;;;7396726;19;20481;-91
2023/02/02 21:04:46;;;;;;;0.30;0.30;;;;;;;;;;7393569;19;20210;-90
2023/02/02 21:07:15;;;;;;;0.30;0.30;;;;;;;;;;7395679;19;20161;-89
2023/02/02 21:09:43;;;;;;;0.30;0.30;;;;;;;;;;7392016;19;20485;-90
2023/02/02 21:12:10;;;;;;;0.23;0.23;;;;;;;;;;7402608;19;20140;-90
2023/02/02 21:14:36;;;;;;;1.37;0.60;;;;;;;;;;7398886;19;20180;-92
2023/02/02 21:17:04;;;;;;;0.70;0.70;;;;;;;;;;7401599;19;20152;-91
2023/02/02 21:19:40;;;;;;;0.20;0.20;;;;;;;;;;7400343;19;20137;-89
2023/02/02 21:22:07;;;;;;;0.30;0.30;;;;;;;;;;7402141;19;20172;-89
2023/02/02 21:24:33;;;;;;;0.30;0.30;;;;;;;;;;7399846;19;20172;-92
2023/02/02 21:27:02;;;;;;;0.30;0.30;;;;;;;;;;7406878;19;20204;-91
2023/02/02 21:29:30;;;;;;;0.20;0.20;;;;;;;;;;7401522;19;20609;-91
2023/02/02 21:32:00;;;;;;;0.20;0.20;;;;;;;;;;7407655;19;20509;-91
2023/02/02 21:34:27;;;;;;;0.30;0.30;;;;;;;;;;7400297;19;20149;-90
2023/02/02 21:36:58;;;;;;;0.20;0.20;;;;;;;;;;7401165;19;20145;-92
2023/02/02 21:39:31;;;;;;;0.30;0.30;;;;;;;;;;7400013;19;20139;-90
2023/02/02 21:42:07;;;;;;;0.20;0.20;;;;;;;;;;7400205;19;20133;-92
2023/02/02 21:44:55;;;;;;;0.30;0.30;;;;;;;;;;7399132;19;20754;-92
2023/02/02 21:47:27;;;;;;;0.27;0.27;;;;;;;;;;7406509;19;20148;-90
2023/02/02 21:49:56;;;;;;;0.23;0.23;;;;;;;;;;7401253;19;20167;-91
2023/02/02 21:52:24;;;;;;;0.20;0.20;;;;;;;;;;7403373;19;20148;-90
2023/02/02 21:54:51;;;;;;;0.30;0.30;;;;;;;;;;7414618;19;20157;-90
2023/02/02 21:57:24;;;;;;;0.20;0.20;;;;;;;;;;7427367;19;20145;-91
2023/02/02 21:59:55;;;;;;;0.20;0.20;;;;;;;;;;7425700;19;20192;-93
2023/02/02 22:02:37;;;;;;;0.30;0.30;;;;;;;;;;7424043;19;20612;-92
2023/02/02 22:05:21;;;;;;;0.30;0.30;;;;;;;;;;7401667;19;20527;-92
2023/02/02 22:07:49;;;;;;;0.30;0.30;;;;;;;;;;7403048;19;20149;-93
2023/02/02 22:10:34;;;;;;;0.30;0.30;;;;;;;;;;7402929;19;20605;-91
2023/02/02 22:13:09;;;;;;;0.20;0.20;;;;;;;;;;7403714;19;20148;-93
2023/02/02 22:15:36;;;;;;;0.30;0.30;;;;;;;;;;7403977;19;20128;-93
2023/02/02 22:18:12;;;;;;;0.20;0.20;;;;;;;;;;7403955;19;20137;-91
2023/02/02 22:20:42;;;;;;;0.30;0.30;;;;;;;;;;7407684;19;20160;-92
2023/02/02 22:23:10;;;;;;;0.30;0.30;;;;;;;;;;7423383;19;20129;-94
2023/02/02 22:25:39;;;;;;;0.20;0.20;;;;;;;;;;7433253;19;20126;-93
2023/02/02 22:28:17;;;;;;;0.30;0.30;;;;;;;;;;7430321;19;20129;-95
2023/02/02 22:30:44;;;;;;;0.20;0.20;;;;;;;;;;7433829;19;20141;-94
2023/02/02 22:33:12;;;;;;;0.20;0.20;;;;;;;;;;7411831;19;20165;-93
2023/02/02 22:35:39;;;;;;;0.30;0.30;;;;;;;;;;7405246;19;20621;-94
2023/02/02 22:38:06;;;;;;;0.30;0.30;;;;;;;;;;7407671;19;20155;-93
2023/02/02 22:40:33;;;;;;;2.40;2.20;;;;;;;;;;7402491;19;20511;-93
2023/02/02 22:43:04;;;;;;;0.30;0.30;;;;;;;;;;7401316;19;20534;-93
2023/02/02 22:45:31;;;;;;;0.20;0.20;;;;;;;;;;7402783;19;20164;-93
2023/02/02 22:47:58;;;;;;;0.30;0.30;;;;;;;;;;7400032;19;20144;-93
2023/02/02 22:50:27;;;;;;;0.27;0.27;;;;;;;;;;7400944;19;20137;-92
2023/02/02 22:52:54;;;;;;;0.30;0.30;;;;;;;;;;7401823;19;20141;-91
2023/02/02 22:55:21;;;;;;;0.20;0.20;;;;;;;;;;7392483;19;20168;-96
2023/02/02 22:57:47;;;;;;;0.30;0.30;;;;;;;;;;7396556;19;20145;-93
2023/02/02 23:00:37;;;;;;;0.30;0.30;;;;;;;;;;7396637;19;20148;-93
2023/02/02 23:03:03;;;;;;;0.30;0.30;;;;;;;;;;7398934;19;20168;-92
2023/02/02 23:05:30;;;;;;;0.23;0.23;;;;;;;;;;7405194;19;20133;-94
2023/02/02 23:07:57;;;;;;;0.30;0.30;;;;;;;;;;7403047;19;20149;-94
2023/02/02 23:10:25;;;;;;;0.30;0.30;;;;;;;;;;7403960;19;20155;-93
2023/02/02 23:12:54;;;;;;;0.30;0.30;;;;;;;;;;7405887;19;20136;-93
2023/02/02 23:15:21;;;;;;;0.30;0.30;;;;;;;;;;7400182;19;20175;-91
2023/02/02 23:17:47;;;;;;;0.27;0.27;;;;;;;;;;7401855;19;20163;-94
2023/02/02 23:20:14;;;;;;;0.30;0.30;;;;;;;;;;7392968;19;20145;-91
2023/02/02 23:22:41;;;;;;;0.30;0.30;;;;;;;;;;7394507;19;20136;-93
2023/02/02 23:25:09;;;;;;;0.20;0.20;;;;;;;;;;7397492;19;20152;-93
2023/02/02 23:27:36;;;;;;;0.30;0.30;;;;;;;;;;7397342;19;20145;-94
2023/02/02 23:30:03;;;;;;;0.30;0.30;;;;;;;;;;7394969;19;20140;-93
2023/02/02 23:32:30;;;;;;;0.30;0.30;;;;;;;;;;7398918;19;20133;-93
2023/02/02 23:34:56;;;;;;;0.20;0.20;;;;;;;;;;7396134;19;20149;-94
2023/02/02 23:37:23;;;;;;;0.20;0.20;;;;;;;;;;7398509;19;20498;-92
2023/02/02 23:39:49;;;;;;;0.20;0.20;;;;;;;;;;7396429;19;20148;-92
2023/02/02 23:42:16;;;;;;;0.20;0.20;;;;;;;;;;7399435;19;20159;-93
2023/02/02 23:44:42;;;;;;;0.20;0.20;;;;;;;;;;7398027;19;20153;-92
2023/02/02 23:47:09;;;;;;;0.30;0.30;;;;;;;;;;7401213;19;20240;-93
2023/02/02 23:49:36;;;;;;;0.20;0.20;;;;;;;;;;7403358;19;20130;-93
2023/02/02 23:52:03;;;;;;;0.43;0.43;;;;;;;;;;7402777;19;20125;-93
2023/02/02 23:54:31;;;;;;;0.30;0.30;;;;;;;;;;7399826;19;20184;-94
2023/02/02 23:56:57;;;;;;;0.20;0.20;;;;;;;;;;7402089;19;20155;-93
2023/02/02 23:59:24;;;;;;;0.20;0.20;;;;;;;;;;7398038;19;20534;-94
